sensor_id;sensor_type;location;lat;lon;timestamp;pressure;altitude;pressure_sealevel;temperature;humidity
78309;BME280;67566;42.022;21.356;2023-04-15T00:00:06;97935.47;;;7.65;56.40
78309;BME280;67566;42.022;21.356;2023-04-15T00:02:32;97938.13;;;7.65;56.48
78309;BME280;67566;42.022;21.356;2023-04-15T00:04:58;97941.28;;;7.67;56.63
78309;BME280;67566;42.022;21.356;2023-04-15T00:07:23;97933.16;;;7.64;56.00
78309;BME280;67566;42.022;21.356;2023-04-15T00:09:48;97940.28;;;7.63;57.09
78309;BME280;67566;42.022;21.356;2023-04-15T00:12:14;97946.47;;;7.72;58.04
78309;BME280;67566;42.022;21.356;2023-04-15T00:14:39;97931.84;;;7.75;57.14
78309;BME280;67566;42.022;21.356;2023-04-15T00:17:05;97936.94;;;7.71;56.47
78309;BME280;67566;42.022;21.356;2023-04-15T00:19:31;97934.41;;;7.66;57.86
78309;BME280;67566;42.022;21.356;2023-04-15T00:21:57;97928.72;;;7.59;57.83
78309;BME280;67566;42.022;21.356;2023-04-15T00:24:23;97941.19;;;7.59;57.95
78309;BME280;67566;42.022;21.356;2023-04-15T00:26:48;97931.84;;;7.61;58.36
78309;BME280;67566;42.022;21.356;2023-04-15T00:29:14;97929.81;;;7.58;58.37
78309;BME280;67566;42.022;21.356;2023-04-15T00:31:39;97930.22;;;7.51;59.02
78309;BME280;67566;42.022;21.356;2023-04-15T00:34:06;97930.00;;;7.48;58.37
78309;BME280;67566;42.022;21.356;2023-04-15T00:36:31;97923.06;;;7.52;57.88
78309;BME280;67566;42.022;21.356;2023-04-15T00:38:58;97922.06;;;7.48;58.26
78309;BME280;67566;42.022;21.356;2023-04-15T00:41:23;97915.31;;;7.42;57.56
78309;BME280;67566;42.022;21.356;2023-04-15T00:43:49;97916.81;;;7.34;59.70
78309;BME280;67566;42.022;21.356;2023-04-15T00:46:16;97923.25;;;7.42;59.62
78309;BME280;67566;42.022;21.356;2023-04-15T00:48:43;97918.25;;;7.40;59.26
78309;BME280;67566;42.022;21.356;2023-04-15T00:51:09;97920.22;;;7.34;57.50
78309;BME280;67566;42.022;21.356;2023-04-15T00:53:35;97925.81;;;7.33;59.58
78309;BME280;67566;42.022;21.356;2023-04-15T00:56:00;97930.53;;;7.22;60.61
78309;BME280;67566;42.022;21.356;2023-04-15T00:58:26;97944.72;;;7.12;61.03
78309;BME280;67566;42.022;21.356;2023-04-15T01:00:53;97939.72;;;7.11;60.53
78309;BME280;67566;42.022;21.356;2023-04-15T01:03:19;97943.97;;;7.12;60.25
78309;BME280;67566;42.022;21.356;2023-04-15T01:05:45;97942.28;;;7.16;59.81
78309;BME280;67566;42.022;21.356;2023-04-15T01:08:11;97934.91;;;7.13;60.38
78309;BME280;67566;42.022;21.356;2023-04-15T01:10:37;97940.13;;;7.18;60.46
78309;BME280;67566;42.022;21.356;2023-04-15T01:13:03;97945.50;;;7.13;59.48
78309;BME280;67566;42.022;21.356;2023-04-15T01:15:29;97941.13;;;7.08;59.60
78309;BME280;67566;42.022;21.356;2023-04-15T01:17:57;97949.16;;;7.03;59.32
78309;BME280;67566;42.022;21.356;2023-04-15T01:20:23;97947.97;;;6.95;60.48
78309;BME280;67566;42.022;21.356;2023-04-15T01:22:49;97950.09;;;6.93;60.19
78309;BME280;67566;42.022;21.356;2023-04-15T01:27:44;97962.72;;;6.83;60.50
78309;BME280;67566;42.022;21.356;2023-04-15T01:30:10;97962.03;;;6.77;61.32
78309;BME280;67566;42.022;21.356;2023-04-15T01:32:36;97954.75;;;6.69;60.99
78309;BME280;67566;42.022;21.356;2023-04-15T01:35:02;97943.78;;;6.61;60.20
78309;BME280;67566;42.022;21.356;2023-04-15T01:37:28;97956.78;;;6.58;60.78
78309;BME280;67566;42.022;21.356;2023-04-15T01:39:54;97958.16;;;6.55;60.72
78309;BME280;67566;42.022;21.356;2023-04-15T01:42:21;97949.72;;;6.53;60.98
78309;BME280;67566;42.022;21.356;2023-04-15T01:44:47;97947.88;;;6.54;61.44
78309;BME280;67566;42.022;21.356;2023-04-15T01:47:12;97950.25;;;6.55;61.72
78309;BME280;67566;42.022;21.356;2023-04-15T01:49:38;97960.00;;;6.55;60.92
78309;BME280;67566;42.022;21.356;2023-04-15T01:52:04;97962.09;;;6.58;61.83
78309;BME280;67566;42.022;21.356;2023-04-15T01:54:29;97959.44;;;6.58;62.47
78309;BME280;67566;42.022;21.356;2023-04-15T01:56:54;97960.22;;;6.58;62.18
78309;BME280;67566;42.022;21.356;2023-04-15T01:59:21;97964.66;;;6.63;63.02
78309;BME280;67566;42.022;21.356;2023-04-15T02:01:47;97965.13;;;6.65;63.12
78309;BME280;67566;42.022;21.356;2023-04-15T02:04:12;97969.28;;;6.71;62.85
78309;BME280;67566;42.022;21.356;2023-04-15T02:06:43;97966.84;;;6.75;63.24
78309;BME280;67566;42.022;21.356;2023-04-15T02:09:09;97960.75;;;6.74;62.88
78309;BME280;67566;42.022;21.356;2023-04-15T02:11:35;97962.63;;;6.74;62.22
78309;BME280;67566;42.022;21.356;2023-04-15T02:14:02;97974.38;;;6.68;62.32
78309;BME280;67566;42.022;21.356;2023-04-15T02:16:31;97978.16;;;6.61;61.83
78309;BME280;67566;42.022;21.356;2023-04-15T02:18:58;97978.16;;;6.61;62.72
78309;BME280;67566;42.022;21.356;2023-04-15T02:21:25;97983.25;;;6.58;63.03
78309;BME280;67566;42.022;21.356;2023-04-15T02:23:51;97992.56;;;6.55;63.13
78309;BME280;67566;42.022;21.356;2023-04-15T02:26:18;97997.13;;;6.50;63.82
78309;BME280;67566;42.022;21.356;2023-04-15T02:28:44;98000.91;;;6.43;63.50
78309;BME280;67566;42.022;21.356;2023-04-15T02:31:09;97995.50;;;6.35;63.63
78309;BME280;67566;42.022;21.356;2023-04-15T02:33:35;97995.44;;;6.21;64.02
78309;BME280;67566;42.022;21.356;2023-04-15T02:36:02;98002.94;;;6.14;63.51
78309;BME280;67566;42.022;21.356;2023-04-15T02:38:27;98001.13;;;6.09;64.36
78309;BME280;67566;42.022;21.356;2023-04-15T02:40:52;98010.66;;;6.10;63.19
78309;BME280;67566;42.022;21.356;2023-04-15T02:43:18;98010.00;;;6.18;64.17
78309;BME280;67566;42.022;21.356;2023-04-15T02:45:45;98008.28;;;6.28;65.28
78309;BME280;67566;42.022;21.356;2023-04-15T02:48:11;98008.84;;;6.24;64.88
78309;BME280;67566;42.022;21.356;2023-04-15T02:50:37;97997.56;;;6.19;65.08
78309;BME280;67566;42.022;21.356;2023-04-15T02:53:05;97993.50;;;6.08;65.54
78309;BME280;67566;42.022;21.356;2023-04-15T02:55:31;98001.28;;;5.99;65.00
78309;BME280;67566;42.022;21.356;2023-04-15T02:57:57;97996.03;;;5.94;65.24
78309;BME280;67566;42.022;21.356;2023-04-15T03:00:26;97997.72;;;5.84;66.65
78309;BME280;67566;42.022;21.356;2023-04-15T03:03:01;98008.44;;;5.74;66.95
78309;BME280;67566;42.022;21.356;2023-04-15T03:05:26;98015.63;;;5.68;66.61
78309;BME280;67566;42.022;21.356;2023-04-15T03:07:52;98010.63;;;5.67;66.66
78309;BME280;67566;42.022;21.356;2023-04-15T03:10:18;98006.41;;;5.66;65.80
78309;BME280;67566;42.022;21.356;2023-04-15T03:12:44;98013.31;;;5.62;66.27
78309;BME280;67566;42.022;21.356;2023-04-15T03:15:10;98018.09;;;5.60;66.20
78309;BME280;67566;42.022;21.356;2023-04-15T03:17:35;98020.53;;;5.56;65.79
78309;BME280;67566;42.022;21.356;2023-04-15T03:20:02;98022.13;;;5.52;66.06
78309;BME280;67566;42.022;21.356;2023-04-15T03:22:31;98027.13;;;5.54;66.68
78309;BME280;67566;42.022;21.356;2023-04-15T03:24:57;98028.72;;;5.55;66.27
78309;BME280;67566;42.022;21.356;2023-04-15T03:27:23;98025.88;;;5.51;66.64
78309;BME280;67566;42.022;21.356;2023-04-15T03:29:48;98032.47;;;5.48;67.43
78309;BME280;67566;42.022;21.356;2023-04-15T03:32:14;98024.72;;;5.57;66.94
78309;BME280;67566;42.022;21.356;2023-04-15T03:34:40;98015.75;;;5.58;67.40
78309;BME280;67566;42.022;21.356;2023-04-15T03:37:06;98026.13;;;5.49;67.63
78309;BME280;67566;42.022;21.356;2023-04-15T03:39:31;98035.53;;;5.37;68.00
78309;BME280;67566;42.022;21.356;2023-04-15T03:41:57;98034.03;;;5.25;68.96
78309;BME280;67566;42.022;21.356;2023-04-15T03:44:25;98033.06;;;5.16;68.87
78309;BME280;67566;42.022;21.356;2023-04-15T03:46:50;98032.34;;;5.10;68.30
78309;BME280;67566;42.022;21.356;2023-04-15T03:49:16;98039.19;;;5.11;68.21
78309;BME280;67566;42.022;21.356;2023-04-15T03:51:43;98040.81;;;5.07;67.77
78309;BME280;67566;42.022;21.356;2023-04-15T03:54:09;98037.16;;;5.03;67.89
78309;BME280;67566;42.022;21.356;2023-04-15T03:56:34;98043.50;;;5.02;67.39
78309;BME280;67566;42.022;21.356;2023-04-15T03:59:00;98048.50;;;5.04;67.91
78309;BME280;67566;42.022;21.356;2023-04-15T04:01:25;98045.06;;;5.03;67.54
78309;BME280;67566;42.022;21.356;2023-04-15T04:03:51;98060.06;;;5.08;67.48
78309;BME280;67566;42.022;21.356;2023-04-15T04:06:16;98066.06;;;5.14;67.28
78309;BME280;67566;42.022;21.356;2023-04-15T04:08:42;98062.84;;;5.22;67.47
78309;BME280;67566;42.022;21.356;2023-04-15T04:11:07;98065.78;;;5.44;67.37
78309;BME280;67566;42.022;21.356;2023-04-15T04:13:33;98067.72;;;5.63;66.59
78309;BME280;67566;42.022;21.356;2023-04-15T04:15:58;98069.56;;;5.86;66.82
78309;BME280;67566;42.022;21.356;2023-04-15T04:18:24;98069.78;;;6.14;65.72
78309;BME280;67566;42.022;21.356;2023-04-15T04:20:49;98071.41;;;6.34;66.82
78309;BME280;67566;42.022;21.356;2023-04-15T04:23:15;98070.88;;;6.51;66.24
78309;BME280;67566;42.022;21.356;2023-04-15T04:25:40;98082.00;;;6.86;64.30
78309;BME280;67566;42.022;21.356;2023-04-15T04:28:06;98084.09;;;7.22;63.38
78309;BME280;67566;42.022;21.356;2023-04-15T04:30:32;98086.81;;;7.78;61.69
78309;BME280;67566;42.022;21.356;2023-04-15T04:32:57;98095.00;;;8.31;60.47
78309;BME280;67566;42.022;21.356;2023-04-15T04:35:23;98107.25;;;8.69;59.69
78309;BME280;67566;42.022;21.356;2023-04-15T04:37:48;98110.09;;;8.95;58.77
78309;BME280;67566;42.022;21.356;2023-04-15T04:40:14;98103.88;;;9.22;57.53
78309;BME280;67566;42.022;21.356;2023-04-15T04:42:39;98113.09;;;9.48;56.88
78309;BME280;67566;42.022;21.356;2023-04-15T04:45:05;98110.97;;;9.98;55.74
78309;BME280;67566;42.022;21.356;2023-04-15T04:47:31;98112.34;;;10.53;55.29
78309;BME280;67566;42.022;21.356;2023-04-15T04:49:57;98118.97;;;10.91;54.06
78309;BME280;67566;42.022;21.356;2023-04-15T04:52:22;98115.31;;;11.22;54.04
78309;BME280;67566;42.022;21.356;2023-04-15T04:54:47;98125.00;;;11.35;52.61
78309;BME280;67566;42.022;21.356;2023-04-15T04:57:13;98126.22;;;12.11;52.20
78309;BME280;67566;42.022;21.356;2023-04-15T04:59:39;98132.22;;;14.95;46.58
78309;BME280;67566;42.022;21.356;2023-04-15T05:02:04;98133.00;;;19.73;36.28
78309;BME280;67566;42.022;21.356;2023-04-15T05:04:30;98134.41;;;23.40;29.64
78309;BME280;67566;42.022;21.356;2023-04-15T05:06:56;98134.38;;;25.92;26.01
78309;BME280;67566;42.022;21.356;2023-04-15T05:09:22;98136.69;;;27.21;22.98
78309;BME280;67566;42.022;21.356;2023-04-15T05:11:48;98137.84;;;28.51;22.20
78309;BME280;67566;42.022;21.356;2023-04-15T05:14:13;98140.91;;;29.25;20.09
78309;BME280;67566;42.022;21.356;2023-04-15T05:16:39;98142.41;;;30.95;19.12
78309;BME280;67566;42.022;21.356;2023-04-15T05:19:04;98139.91;;;32.18;18.09
78309;BME280;67566;42.022;21.356;2023-04-15T05:21:29;98147.16;;;33.23;16.99
78309;BME280;67566;42.022;21.356;2023-04-15T05:23:55;98147.00;;;34.72;15.90
78309;BME280;67566;42.022;21.356;2023-04-15T05:26:21;98151.19;;;36.18;15.10
78309;BME280;67566;42.022;21.356;2023-04-15T05:28:46;98159.22;;;37.47;14.21
78309;BME280;67566;42.022;21.356;2023-04-15T05:31:12;98152.38;;;37.11;13.97
78309;BME280;67566;42.022;21.356;2023-04-15T05:33:38;98159.25;;;37.96;13.85
78309;BME280;67566;42.022;21.356;2023-04-15T05:36:04;98170.41;;;38.96;12.46
78309;BME280;67566;42.022;21.356;2023-04-15T05:38:30;98171.09;;;39.75;12.31
78309;BME280;67566;42.022;21.356;2023-04-15T05:40:56;98176.09;;;40.05;12.30
78309;BME280;67566;42.022;21.356;2023-04-15T05:43:21;98166.50;;;40.95;12.05
78309;BME280;67566;42.022;21.356;2023-04-15T05:45:46;98164.44;;;40.95;10.80
78309;BME280;67566;42.022;21.356;2023-04-15T05:48:12;98162.97;;;40.89;11.82
78309;BME280;67566;42.022;21.356;2023-04-15T05:50:40;98164.78;;;41.17;10.85
78309;BME280;67566;42.022;21.356;2023-04-15T05:53:06;98157.00;;;41.59;10.26
78309;BME280;67566;42.022;21.356;2023-04-15T05:55:32;98161.84;;;42.78;10.62
78309;BME280;67566;42.022;21.356;2023-04-15T05:57:57;98160.66;;;43.91;9.35
78309;BME280;67566;42.022;21.356;2023-04-15T06:00:23;98164.53;;;44.02;8.71
78309;BME280;67566;42.022;21.356;2023-04-15T06:02:48;98164.03;;;44.38;9.02
78309;BME280;67566;42.022;21.356;2023-04-15T06:05:14;98172.03;;;44.34;9.64
78309;BME280;67566;42.022;21.356;2023-04-15T06:07:39;98164.16;;;44.87;9.77
78309;BME280;67566;42.022;21.356;2023-04-15T06:10:05;98163.38;;;43.84;9.01
78309;BME280;67566;42.022;21.356;2023-04-15T06:12:32;98166.63;;;42.83;9.38
78309;BME280;67566;42.022;21.356;2023-04-15T06:14:57;98161.41;;;43.52;9.17
78309;BME280;67566;42.022;21.356;2023-04-15T06:17:23;98164.78;;;44.38;8.64
78309;BME280;67566;42.022;21.356;2023-04-15T06:19:48;98164.75;;;45.07;8.65
78309;BME280;67566;42.022;21.356;2023-04-15T06:22:20;98168.78;;;43.82;9.22
78309;BME280;67566;42.022;21.356;2023-04-15T06:24:45;98163.47;;;41.48;9.66
78309;BME280;67566;42.022;21.356;2023-04-15T06:27:11;98156.38;;;37.73;12.87
78309;BME280;67566;42.022;21.356;2023-04-15T06:29:36;98140.50;;;35.05;14.29
78309;BME280;67566;42.022;21.356;2023-04-15T06:32:02;98136.41;;;32.09;15.81
78309;BME280;67566;42.022;21.356;2023-04-15T06:34:27;98137.59;;;31.49;17.48
78309;BME280;67566;42.022;21.356;2023-04-15T06:36:52;98145.28;;;32.13;16.97
78309;BME280;67566;42.022;21.356;2023-04-15T06:39:18;98157.84;;;34.21;15.18
78309;BME280;67566;42.022;21.356;2023-04-15T06:41:44;98161.88;;;36.72;13.58
78309;BME280;67566;42.022;21.356;2023-04-15T06:44:10;98165.41;;;36.73;12.55
78309;BME280;67566;42.022;21.356;2023-04-15T06:46:35;98161.06;;;39.10;11.77
78309;BME280;67566;42.022;21.356;2023-04-15T06:49:01;98162.16;;;40.05;11.18
78309;BME280;67566;42.022;21.356;2023-04-15T06:51:27;98166.34;;;41.12;10.05
78309;BME280;67566;42.022;21.356;2023-04-15T06:53:53;98171.84;;;41.23;11.26
78309;BME280;67566;42.022;21.356;2023-04-15T06:56:18;98179.19;;;42.95;10.54
78309;BME280;67566;42.022;21.356;2023-04-15T06:58:44;98167.66;;;44.25;8.95
78309;BME280;67566;42.022;21.356;2023-04-15T07:01:09;98173.81;;;43.97;8.97
78309;BME280;67566;42.022;21.356;2023-04-15T07:03:36;98166.28;;;43.06;9.64
78309;BME280;67566;42.022;21.356;2023-04-15T07:06:02;98169.34;;;44.28;8.97
78309;BME280;67566;42.022;21.356;2023-04-15T07:08:30;98162.84;;;41.36;10.08
78309;BME280;67566;42.022;21.356;2023-04-15T07:10:56;98163.38;;;39.06;11.33
78309;BME280;67566;42.022;21.356;2023-04-15T07:13:22;98170.69;;;40.24;10.45
78309;BME280;67566;42.022;21.356;2023-04-15T07:15:47;98171.88;;;37.97;12.07
78309;BME280;67566;42.022;21.356;2023-04-15T07:18:13;98170.19;;;39.11;11.46
78309;BME280;67566;42.022;21.356;2023-04-15T07:20:39;98172.63;;;37.92;12.35
78309;BME280;67566;42.022;21.356;2023-04-15T07:23:04;98170.44;;;37.27;12.78
78309;BME280;67566;42.022;21.356;2023-04-15T07:25:30;98172.78;;;37.08;12.38
78309;BME280;67566;42.022;21.356;2023-04-15T07:27:55;98167.91;;;36.03;13.56
78309;BME280;67566;42.022;21.356;2023-04-15T07:30:21;98167.63;;;34.86;14.64
78309;BME280;67566;42.022;21.356;2023-04-15T07:32:46;98166.53;;;34.68;14.79
78309;BME280;67566;42.022;21.356;2023-04-15T07:35:12;98162.19;;;37.06;12.51
78309;BME280;67566;42.022;21.356;2023-04-15T07:37:37;98178.28;;;37.28;12.33
78309;BME280;67566;42.022;21.356;2023-04-15T07:40:03;98172.41;;;37.58;13.09
78309;BME280;67566;42.022;21.356;2023-04-15T07:42:30;98172.25;;;37.67;12.54
78309;BME280;67566;42.022;21.356;2023-04-15T07:44:56;98169.28;;;36.81;13.30
78309;BME280;67566;42.022;21.356;2023-04-15T07:47:22;98169.13;;;38.68;12.32
78309;BME280;67566;42.022;21.356;2023-04-15T07:49:47;98166.25;;;37.42;13.08
78309;BME280;67566;42.022;21.356;2023-04-15T07:52:13;98165.06;;;37.55;13.01
78309;BME280;67566;42.022;21.356;2023-04-15T07:54:38;98163.03;;;37.93;12.51
78309;BME280;67566;42.022;21.356;2023-04-15T07:57:04;98152.47;;;37.22;12.64
78309;BME280;67566;42.022;21.356;2023-04-15T07:59:29;98160.63;;;38.23;11.79
78309;BME280;67566;42.022;21.356;2023-04-15T08:01:57;98159.53;;;38.69;11.78
78309;BME280;67566;42.022;21.356;2023-04-15T08:04:23;98165.94;;;37.67;11.92
78309;BME280;67566;42.022;21.356;2023-04-15T08:06:49;98161.22;;;34.94;14.87
78309;BME280;67566;42.022;21.356;2023-04-15T08:09:15;98169.22;;;36.08;14.08
78309;BME280;67566;42.022;21.356;2023-04-15T08:11:40;98162.75;;;36.84;13.02
78309;BME280;67566;42.022;21.356;2023-04-15T08:14:06;98159.78;;;38.00;12.31
78309;BME280;67566;42.022;21.356;2023-04-15T08:16:32;98156.50;;;37.58;12.76
78309;BME280;67566;42.022;21.356;2023-04-15T08:18:57;98149.59;;;35.55;13.46
78309;BME280;67566;42.022;21.356;2023-04-15T08:21:24;98153.31;;;35.32;13.06
78309;BME280;67566;42.022;21.356;2023-04-15T08:23:50;98148.16;;;34.95;13.60
78309;BME280;67566;42.022;21.356;2023-04-15T08:26:17;98149.03;;;33.84;14.05
78309;BME280;67566;42.022;21.356;2023-04-15T08:28:44;98151.34;;;33.00;15.48
78309;BME280;67566;42.022;21.356;2023-04-15T08:31:11;98155.13;;;33.21;14.61
78309;BME280;67566;42.022;21.356;2023-04-15T08:33:37;98146.78;;;32.88;15.67
78309;BME280;67566;42.022;21.356;2023-04-15T08:36:03;98147.72;;;32.48;15.69
78309;BME280;67566;42.022;21.356;2023-04-15T08:38:28;98152.44;;;29.84;17.48
78309;BME280;67566;42.022;21.356;2023-04-15T08:40:55;98152.94;;;28.59;18.78
78309;BME280;67566;42.022;21.356;2023-04-15T08:43:26;98159.00;;;28.05;18.68
78309;BME280;67566;42.022;21.356;2023-04-15T08:45:53;98158.19;;;27.19;20.30
78309;BME280;67566;42.022;21.356;2023-04-15T08:48:19;98153.84;;;25.09;22.50
78309;BME280;67566;42.022;21.356;2023-04-15T08:50:46;98154.84;;;25.22;21.98
78309;BME280;67566;42.022;21.356;2023-04-15T08:53:12;98162.44;;;23.89;24.47
78309;BME280;67566;42.022;21.356;2023-04-15T08:55:45;98150.53;;;22.88;25.94
78309;BME280;67566;42.022;21.356;2023-04-15T08:58:12;98153.66;;;22.83;25.71
78309;BME280;67566;42.022;21.356;2023-04-15T09:00:38;98156.66;;;23.06;25.93
78309;BME280;67566;42.022;21.356;2023-04-15T09:03:04;98160.78;;;23.40;26.16
78309;BME280;67566;42.022;21.356;2023-04-15T09:05:34;98147.16;;;22.40;26.32
78309;BME280;67566;42.022;21.356;2023-04-15T09:08:01;98144.63;;;23.14;25.66
78309;BME280;67566;42.022;21.356;2023-04-15T09:10:28;98155.75;;;23.38;25.44
78309;BME280;67566;42.022;21.356;2023-04-15T09:12:54;98154.19;;;24.00;24.73
78309;BME280;67566;42.022;21.356;2023-04-15T09:15:20;98152.03;;;23.73;25.49
78309;BME280;67566;42.022;21.356;2023-04-15T09:17:46;98149.63;;;20.93;28.98
78309;BME280;67566;42.022;21.356;2023-04-15T09:20:14;98142.38;;;21.15;28.68
78309;BME280;67566;42.022;21.356;2023-04-15T09:22:42;98140.94;;;21.54;27.97
78309;BME280;67566;42.022;21.356;2023-04-15T09:27:58;98124.69;;;22.18;27.80
78309;BME280;67566;42.022;21.356;2023-04-15T09:30:24;98130.44;;;21.30;27.78
78309;BME280;67566;42.022;21.356;2023-04-15T09:32:55;98133.91;;;21.27;29.12
78309;BME280;67566;42.022;21.356;2023-04-15T09:35:21;98126.88;;;21.05;28.39
78309;BME280;67566;42.022;21.356;2023-04-15T09:37:51;98118.91;;;21.84;27.31
78309;BME280;67566;42.022;21.356;2023-04-15T09:40:39;98123.88;;;22.54;26.24
78309;BME280;67566;42.022;21.356;2023-04-15T09:43:06;98122.22;;;22.81;26.09
78309;BME280;67566;42.022;21.356;2023-04-15T09:45:33;98110.31;;;23.42;24.90
78309;BME280;67566;42.022;21.356;2023-04-15T09:48:23;98110.38;;;23.91;24.12
78309;BME280;67566;42.022;21.356;2023-04-15T09:50:56;98112.38;;;24.25;23.44
78309;BME280;67566;42.022;21.356;2023-04-15T09:53:23;98111.72;;;24.48;22.84
78309;BME280;67566;42.022;21.356;2023-04-15T09:55:49;98105.06;;;24.56;22.68
78309;BME280;67566;42.022;21.356;2023-04-15T10:00:49;98095.88;;;24.77;21.57
78309;BME280;67566;42.022;21.356;2023-04-15T10:03:23;98096.56;;;24.50;21.78
78309;BME280;67566;42.022;21.356;2023-04-15T10:05:50;98101.97;;;23.08;22.50
78309;BME280;67566;42.022;21.356;2023-04-15T10:08:19;98095.72;;;23.74;22.64
78309;BME280;67566;42.022;21.356;2023-04-15T10:10:45;98090.53;;;24.32;22.43
78309;BME280;67566;42.022;21.356;2023-04-15T10:13:17;98090.47;;;24.74;22.72
78309;BME280;67566;42.022;21.356;2023-04-15T10:15:50;98088.81;;;25.11;21.91
78309;BME280;67566;42.022;21.356;2023-04-15T10:18:19;98086.66;;;25.29;21.68
78309;BME280;67566;42.022;21.356;2023-04-15T10:20:47;98076.69;;;25.46;21.70
78309;BME280;67566;42.022;21.356;2023-04-15T10:23:12;98089.72;;;25.58;20.99
78309;BME280;67566;42.022;21.356;2023-04-15T10:25:39;98082.44;;;25.75;19.96
78309;BME280;67566;42.022;21.356;2023-04-15T10:28:06;98083.44;;;25.61;20.32
78309;BME280;67566;42.022;21.356;2023-04-15T10:30:33;98074.84;;;25.39;20.02
78309;BME280;67566;42.022;21.356;2023-04-15T10:33:00;98066.19;;;25.68;19.96
78309;BME280;67566;42.022;21.356;2023-04-15T10:35:27;98068.25;;;25.84;20.05
78309;BME280;67566;42.022;21.356;2023-04-15T10:37:55;98060.28;;;25.97;20.26
78309;BME280;67566;42.022;21.356;2023-04-15T10:40:30;98068.91;;;25.92;19.64
78309;BME280;67566;42.022;21.356;2023-04-15T10:42:59;98061.22;;;25.39;19.20
78309;BME280;67566;42.022;21.356;2023-04-15T10:45:26;98059.53;;;24.91;19.30
78309;BME280;67566;42.022;21.356;2023-04-15T10:47:56;98052.53;;;24.25;19.87
78309;BME280;67566;42.022;21.356;2023-04-15T10:50:25;98057.72;;;23.67;20.67
78309;BME280;67566;42.022;21.356;2023-04-15T10:52:51;98057.31;;;23.68;20.76
78309;BME280;67566;42.022;21.356;2023-04-15T10:55:21;98063.50;;;23.69;20.90
78309;BME280;67566;42.022;21.356;2023-04-15T10:57:51;98059.69;;;23.63;21.70
78309;BME280;67566;42.022;21.356;2023-04-15T11:00:19;98054.97;;;24.16;21.58
78309;BME280;67566;42.022;21.356;2023-04-15T11:02:58;98056.13;;;24.15;20.27
78309;BME280;67566;42.022;21.356;2023-04-15T11:08:07;98055.66;;;23.78;20.50
78309;BME280;67566;42.022;21.356;2023-04-15T11:13:01;98052.78;;;24.00;20.21
78309;BME280;67566;42.022;21.356;2023-04-15T11:15:34;98060.94;;;23.54;20.60
78309;BME280;67566;42.022;21.356;2023-04-15T11:18:13;98062.81;;;23.02;22.46
78309;BME280;67566;42.022;21.356;2023-04-15T11:20:41;98062.75;;;21.45;25.02
78309;BME280;67566;42.022;21.356;2023-04-15T11:23:07;98058.13;;;21.81;25.00
78309;BME280;67566;42.022;21.356;2023-04-15T11:25:34;98059.28;;;21.41;25.45
78309;BME280;67566;42.022;21.356;2023-04-15T11:28:02;98053.78;;;21.05;25.19
78309;BME280;67566;42.022;21.356;2023-04-15T11:30:30;98061.91;;;21.08;25.25
78309;BME280;67566;42.022;21.356;2023-04-15T11:32:59;98061.97;;;20.28;26.64
78309;BME280;67566;42.022;21.356;2023-04-15T11:35:25;98055.09;;;20.37;26.75
78309;BME280;67566;42.022;21.356;2023-04-15T11:37:50;98060.47;;;20.34;26.44
78309;BME280;67566;42.022;21.356;2023-04-15T11:40:21;98060.41;;;20.27;26.81
78309;BME280;67566;42.022;21.356;2023-04-15T11:43:09;98053.66;;;20.65;26.24
78309;BME280;67566;42.022;21.356;2023-04-15T11:45:36;98046.28;;;20.51;26.02
78309;BME280;67566;42.022;21.356;2023-04-15T11:48:09;98043.28;;;20.78;26.14
78309;BME280;67566;42.022;21.356;2023-04-15T11:50:36;98044.81;;;20.72;26.06
78309;BME280;67566;42.022;21.356;2023-04-15T11:53:05;98054.81;;;20.61;26.89
78309;BME280;67566;42.022;21.356;2023-04-15T11:55:41;98041.91;;;20.29;27.40
78309;BME280;67566;42.022;21.356;2023-04-15T11:58:23;98044.31;;;19.78;27.02
78309;BME280;67566;42.022;21.356;2023-04-15T12:00:54;98031.88;;;19.70;28.55
78309;BME280;67566;42.022;21.356;2023-04-15T12:03:27;98038.63;;;19.46;28.52
78309;BME280;67566;42.022;21.356;2023-04-15T12:06:11;98033.44;;;19.27;29.12
78309;BME280;67566;42.022;21.356;2023-04-15T12:13:53;98037.41;;;19.88;27.57
78309;BME280;67566;42.022;21.356;2023-04-15T12:16:19;98036.19;;;19.34;27.61
78309;BME280;67566;42.022;21.356;2023-04-15T12:18:52;98045.13;;;19.38;28.56
78309;BME280;67566;42.022;21.356;2023-04-15T12:21:24;98032.69;;;19.30;28.62
78309;BME280;67566;42.022;21.356;2023-04-15T12:23:54;98035.13;;;19.01;29.44
78309;BME280;67566;42.022;21.356;2023-04-15T12:27:00;98036.28;;;18.36;29.60
78309;BME280;67566;42.022;21.356;2023-04-15T12:29:27;98027.94;;;18.14;30.47
78309;BME280;67566;42.022;21.356;2023-04-15T12:32:09;98033.28;;;18.10;31.12
78309;BME280;67566;42.022;21.356;2023-04-15T12:34:40;98023.66;;;18.13;31.53
78309;BME280;67566;42.022;21.356;2023-04-15T12:37:07;98025.66;;;18.16;30.55
78309;BME280;67566;42.022;21.356;2023-04-15T12:39:38;98027.31;;;17.98;31.74
78309;BME280;67566;42.022;21.356;2023-04-15T12:42:04;98011.19;;;18.01;31.39
78309;BME280;67566;42.022;21.356;2023-04-15T12:44:30;98015.91;;;18.08;32.23
78309;BME280;67566;42.022;21.356;2023-04-15T12:46:57;98011.41;;;17.89;31.20
78309;BME280;67566;42.022;21.356;2023-04-15T12:49:24;98016.88;;;17.96;32.35
78309;BME280;67566;42.022;21.356;2023-04-15T12:51:55;98018.91;;;18.03;31.16
78309;BME280;67566;42.022;21.356;2023-04-15T12:54:21;98008.81;;;18.23;31.62
78309;BME280;67566;42.022;21.356;2023-04-15T12:56:48;98009.38;;;18.39;30.99
78309;BME280;67566;42.022;21.356;2023-04-15T12:59:14;98011.50;;;18.57;30.37
78309;BME280;67566;42.022;21.356;2023-04-15T13:01:40;98012.78;;;18.66;28.68
78309;BME280;67566;42.022;21.356;2023-04-15T13:04:06;98015.19;;;18.75;29.51
78309;BME280;67566;42.022;21.356;2023-04-15T13:06:32;98008.56;;;18.69;28.74
78309;BME280;67566;42.022;21.356;2023-04-15T13:08:58;98005.28;;;18.83;28.90
78309;BME280;67566;42.022;21.356;2023-04-15T13:11:24;98002.06;;;18.74;29.25